Airfield :
LOGIN :

Register | Disclaimer

   EN    FR    IT 

 










Legend :    VFR   Marginal VFR   IFR   Intensive IFR   Very Intensive IFR
Visi :
Ceiling :
>= 8 km
>= 3000ft
5 to 8 km
1000 to 3000 ft
1500m to 5 km
500 to 1000 ft
800 to 1500m
200 to 500 ft
< 800m
< 200 ft
Symbols :   Thunderstorms  Fog  Heavy snow  Heavy precipitations  Wind > 20 kt
SIGMETs :     Misc.  Thunderstorms  Icing  Turbulence  Mountain Waves  Volcanic Ashes






- Airport Elevation : 755 ft
- IATA code : KSC


LZKZ - Kosice

CURRENT METAR :
  • 151500Z 10005KT CAVOK 32/20 Q1013 NOSIG

EXPIRED METARs :
  • 151430Z 09004KT 050V120 CAVOK 32/20 Q1013 NOSIG
  • 151400Z 06004KT 010V110 CAVOK 32/19 Q1014 NOSIG
  • 151330Z 03004KT 360V060 9999 FEW040 32/19 Q1014 NOSIG
  • 151300Z 02005KT 340V060 9999 FEW040 32/20 Q1014 NOSIG
  • 151230Z 02005KT 330V070 9999 FEW040 31/20 Q1014 NOSIG
  • 151200Z 01008KT 340V040 9999 FEW040 31/20 Q1014 NOSIG
  • 151130Z 01009KT 340V050 CAVOK 31/20 Q1014 NOSIG
  • 151100Z 02011KT CAVOK 30/20 Q1014 NOSIG
  • 151030Z 04013KT CAVOK 30/20 Q1014 NOSIG

TAF TAF LZKZ
Valid from the 15 at 12:00 until the 16 at 12:00 UTC


151115Z 1512/1612 02009KT CAVOK
PROB30
TEMPO 1513/1519 27015G25KT 9999 -TSRA FEW040 SCT045CB
PROB40
TEMPO 1600/1606 9999 FEW053CB



MET'MAP, your aeronautical weather chart ! - Copyright ORBIFLY December 2007 - Disclaimer

ORBIFLY MET'MAP TEAM :

Programming & Development : Alexandra Zaïnal
Original concept : Baudouin d'Aumeries
Technical & hardware support : Manuel Goepfert
Assistance : Marc-Olivier Méhu




SOURCES & CREDITS :

   NOAA